createdAt,value
2022-10-23T00:01:42.559Z,100.00
2022-10-23T00:04:17.096Z,100.00
2022-10-23T00:06:44.854Z,100.00
2022-10-23T00:09:14.749Z,100.00
2022-10-23T00:11:44.916Z,100.00
2022-10-23T00:14:11.882Z,100.00
2022-10-23T00:16:39.890Z,100.00
2022-10-23T00:19:07.840Z,100.00
2022-10-23T00:21:35.102Z,100.00
2022-10-23T00:24:02.119Z,100.00
2022-10-23T00:26:29.164Z,100.00
2022-10-23T00:28:56.469Z,100.00
2022-10-23T00:31:26.547Z,100.00
2022-10-23T00:33:53.911Z,100.00
2022-10-23T00:36:22.001Z,100.00
2022-10-23T00:38:49.953Z,100.00
2022-10-23T00:41:23.714Z,100.00
2022-10-23T00:44:10.771Z,100.00
2022-10-23T00:46:39.403Z,100.00
2022-10-23T00:49:08.289Z,100.00
2022-10-23T00:51:46.395Z,100.00
2022-10-23T00:54:24.467Z,100.00
2022-10-23T00:57:00.296Z,100.00
2022-10-23T00:59:29.529Z,100.00
2022-10-23T01:01:56.951Z,100.00
2022-10-23T01:04:25.967Z,100.00
2022-10-23T01:07:14.594Z,100.00
2022-10-23T01:10:13.389Z,100.00
2022-10-23T01:13:11.760Z,100.00
2022-10-23T01:15:53.860Z,100.00
2022-10-23T01:18:46.045Z,100.00
2022-10-23T01:21:22.549Z,100.00
2022-10-23T01:24:46.435Z,100.00
2022-10-23T01:27:27.870Z,100.00
2022-10-23T01:30:16.418Z,100.00
2022-10-23T01:32:47.559Z,100.00
2022-10-23T01:35:21.485Z,100.00
2022-10-23T01:37:58.175Z,100.00
2022-10-23T01:40:42.241Z,100.00
2022-10-23T01:43:14.443Z,100.00
2022-10-23T01:45:46.215Z,100.00
2022-10-23T01:48:18.314Z,100.00
2022-10-23T01:50:47.189Z,100.00
2022-10-23T01:53:14.369Z,100.00
2022-10-23T01:55:43.467Z,100.00
2022-10-23T01:58:11.388Z,100.00
2022-10-23T02:00:42.512Z,100.00
2022-10-23T02:03:12.063Z,100.00
2022-10-23T02:05:39.603Z,100.00
2022-10-23T02:08:07.272Z,100.00
2022-10-23T02:11:00.919Z,100.00
2022-10-23T02:13:42.602Z,100.00
2022-10-23T02:16:31.590Z,100.00
2022-10-23T02:19:11.251Z,100.00
2022-10-23T02:21:55.068Z,100.00
2022-10-23T02:24:31.787Z,100.00
2022-10-23T02:27:03.101Z,100.00
2022-10-23T02:29:42.809Z,100.00
2022-10-23T02:32:34.374Z,100.00
2022-10-23T02:35:03.154Z,100.00
2022-10-23T02:37:31.046Z,100.00
2022-10-23T02:39:58.187Z,100.00
2022-10-23T02:42:34.545Z,100.00
2022-10-23T02:45:16.091Z,100.00
2022-10-23T02:48:21.555Z,100.00
2022-10-23T02:51:06.002Z,100.00
2022-10-23T02:53:37.569Z,100.00
2022-10-23T02:56:28.400Z,100.00
2022-10-23T02:59:01.181Z,100.00
2022-10-23T03:01:36.488Z,100.00
2022-10-23T03:04:07.028Z,100.00
2022-10-23T03:06:35.218Z,100.00
2022-10-23T03:09:10.267Z,100.00
2022-10-23T03:11:37.288Z,100.00
2022-10-23T03:14:05.293Z,100.00
2022-10-23T03:16:32.269Z,100.00
2022-10-23T03:18:59.356Z,100.00
2022-10-23T03:21:26.480Z,100.00
2022-10-23T03:23:54.003Z,100.00
2022-10-23T03:26:20.991Z,100.00
2022-10-23T03:28:47.938Z,100.00
2022-10-23T03:31:14.891Z,100.00
2022-10-23T03:33:41.762Z,100.00
2022-10-23T03:36:09.199Z,100.00
2022-10-23T03:38:36.094Z,100.00
2022-10-23T03:41:03.104Z,100.00
2022-10-23T03:43:30.803Z,100.00
2022-10-23T03:45:57.818Z,100.00
2022-10-23T03:48:25.795Z,100.00
2022-10-23T03:50:53.799Z,100.00
2022-10-23T03:53:20.758Z,100.00
2022-10-23T03:55:47.709Z,100.00
2022-10-23T03:58:14.640Z,100.00
2022-10-23T04:00:44.777Z,100.00
2022-10-23T04:03:11.704Z,100.00
2022-10-23T04:05:39.436Z,100.00
2022-10-23T04:08:06.357Z,100.00
2022-10-23T04:10:34.282Z,100.00
2022-10-23T04:13:02.274Z,100.00
2022-10-23T04:15:29.235Z,100.00
2022-10-23T04:17:56.155Z,100.00
2022-10-23T04:20:24.194Z,100.00
2022-10-23T04:22:51.183Z,100.00
2022-10-23T04:25:19.118Z,100.00
2022-10-23T04:27:46.312Z,100.00
2022-10-23T04:30:13.679Z,100.00
2022-10-23T04:32:41.658Z,100.00
2022-10-23T04:35:08.826Z,100.00
2022-10-23T04:37:36.763Z,100.00
2022-10-23T04:40:04.095Z,100.00
2022-10-23T04:42:31.067Z,100.00
2022-10-23T04:44:58.055Z,100.00
2022-10-23T04:47:26.157Z,100.00
2022-10-23T04:49:54.117Z,100.00
2022-10-23T04:52:21.146Z,100.00
2022-10-23T04:54:48.214Z,100.00
2022-10-23T04:57:15.183Z,100.00
2022-10-23T04:59:42.120Z,100.00
2022-10-23T05:02:09.127Z,100.00
2022-10-23T05:04:36.014Z,100.00
2022-10-23T05:07:03.697Z,100.00
2022-10-23T05:09:30.737Z,100.00
2022-10-23T05:11:57.668Z,100.00
2022-10-23T05:14:24.688Z,100.00
2022-10-23T05:17:18.562Z,100.00
2022-10-23T05:19:54.067Z,100.00
2022-10-23T05:22:27.342Z,100.00
2022-10-23T05:24:55.032Z,100.00
2022-10-23T05:27:21.996Z,100.00
2022-10-23T05:29:50.953Z,100.00
2022-10-23T05:32:18.244Z,100.00
2022-10-23T05:34:45.351Z,100.00
2022-10-23T05:37:14.668Z,100.00
2022-10-23T05:39:43.193Z,100.00
2022-10-23T05:42:13.122Z,100.00
2022-10-23T05:44:40.265Z,100.00
2022-10-23T05:47:10.285Z,100.00
2022-10-23T05:49:37.334Z,100.00
2022-10-23T05:52:05.300Z,100.00
2022-10-23T05:54:32.662Z,100.00
2022-10-23T05:56:59.655Z,100.00
2022-10-23T05:59:27.627Z,100.00
2022-10-23T06:01:54.666Z,100.00
2022-10-23T06:04:22.818Z,100.00
2022-10-23T06:06:49.799Z,100.00
2022-10-23T06:09:16.803Z,100.00
2022-10-23T06:11:43.985Z,100.00
2022-10-23T06:14:11.003Z,100.00
2022-10-23T06:16:37.998Z,100.00
2022-10-23T06:19:04.920Z,100.00
2022-10-23T06:21:31.923Z,100.00
2022-10-23T06:23:58.943Z,100.00
2022-10-23T06:26:25.915Z,100.00
2022-10-23T06:28:53.888Z,100.00
2022-10-23T06:31:26.958Z,100.00
2022-10-23T06:33:58.182Z,100.00
2022-10-23T06:36:25.897Z,100.00
2022-10-23T06:38:52.946Z,100.00
2022-10-23T06:41:22.150Z,100.00
2022-10-23T06:43:50.910Z,100.00
2022-10-23T06:46:19.253Z,100.00
2022-10-23T06:48:46.807Z,100.00
2022-10-23T06:51:17.347Z,100.00
2022-10-23T06:53:46.292Z,100.00
2022-10-23T06:56:13.584Z,100.00
2022-10-23T06:58:41.369Z,100.00
2022-10-23T07:01:11.567Z,100.00
2022-10-23T07:03:38.886Z,100.00
2022-10-23T07:06:10.086Z,100.00
2022-10-23T07:08:37.699Z,100.00
2022-10-23T07:11:07.635Z,100.00
2022-10-23T07:13:36.218Z,100.00
2022-10-23T07:16:19.461Z,100.00
2022-10-23T07:18:47.597Z,100.00
2022-10-23T07:21:14.664Z,100.00
2022-10-23T07:23:41.938Z,100.00
2022-10-23T07:26:15.501Z,100.00
2022-10-23T07:28:45.206Z,100.00
2022-10-23T07:31:14.007Z,100.00
2022-10-23T07:33:40.914Z,100.00
2022-10-23T07:36:08.739Z,100.00
2022-10-23T07:38:36.274Z,99.49
2022-10-23T07:41:07.778Z,98.78
2022-10-23T07:43:37.518Z,96.92
2022-10-23T07:46:05.811Z,96.52
2022-10-23T07:48:32.797Z,94.92
2022-10-23T07:51:11.516Z,94.35
2022-10-23T07:53:39.168Z,93.20
2022-10-23T07:56:30.085Z,94.15
2022-10-23T07:58:57.415Z,93.12
2022-10-23T08:01:34.509Z,91.61
2022-10-23T08:04:02.011Z,89.76
2022-10-23T08:06:29.365Z,88.27
2022-10-23T08:08:56.395Z,88.72
2022-10-23T08:11:28.125Z,88.41
2022-10-23T08:13:57.854Z,87.96
2022-10-23T08:16:25.724Z,87.67
2022-10-23T08:18:52.809Z,86.78
2022-10-23T08:21:19.836Z,85.94
2022-10-23T08:23:46.852Z,86.75
2022-10-23T08:26:15.591Z,87.47
2022-10-23T08:28:43.553Z,86.25
2022-10-23T08:31:16.836Z,86.38
2022-10-23T08:33:44.293Z,85.35
2022-10-23T08:36:23.604Z,85.53
2022-10-23T08:38:54.014Z,85.96
2022-10-23T08:41:34.021Z,85.00
2022-10-23T08:44:03.650Z,84.29
2022-10-23T08:46:34.995Z,83.78
2022-10-23T08:49:20.879Z,80.75
2022-10-23T08:51:52.040Z,75.49
2022-10-23T08:54:28.233Z,71.76
2022-10-23T08:57:04.415Z,70.05
2022-10-23T08:59:40.154Z,66.11
2022-10-23T09:02:34.303Z,66.15
2022-10-23T09:05:01.436Z,64.63
2022-10-23T09:08:00.043Z,63.54
2022-10-23T09:10:43.019Z,64.40
2022-10-23T09:13:34.670Z,63.06
2022-10-23T09:16:23.234Z,63.97
2022-10-23T09:18:50.547Z,65.64
2022-10-23T09:21:17.458Z,65.17
2022-10-23T09:23:44.390Z,61.94
2022-10-23T09:26:16.630Z,58.13
2022-10-23T09:28:51.756Z,55.72
2022-10-23T09:31:19.827Z,55.03
2022-10-23T09:34:01.143Z,56.12
2022-10-23T09:36:29.659Z,59.08
2022-10-23T09:39:00.974Z,56.15
2022-10-23T09:41:36.754Z,56.48
2022-10-23T09:44:19.146Z,56.78
2022-10-23T09:46:56.212Z,56.80
2022-10-23T09:49:25.843Z,55.88
2022-10-23T09:51:55.487Z,56.71
2022-10-23T09:54:26.022Z,59.68
2022-10-23T09:56:55.331Z,57.27
2022-10-23T09:59:28.215Z,56.71
2022-10-23T10:02:01.375Z,55.46
2022-10-23T10:04:41.956Z,55.08
2022-10-23T10:07:28.139Z,54.93
2022-10-23T10:09:58.431Z,54.69
2022-10-23T10:12:39.910Z,55.59
2022-10-23T10:15:27.576Z,54.82
2022-10-23T10:18:00.314Z,53.26
2022-10-23T10:20:48.874Z,52.99
2022-10-23T10:23:38.525Z,53.37
2022-10-23T10:26:08.331Z,53.36
2022-10-23T10:29:03.035Z,52.81
2022-10-23T10:31:43.104Z,50.81
2022-10-23T10:34:37.004Z,51.57
2022-10-23T10:37:25.348Z,53.24
2022-10-23T10:40:14.550Z,56.11
2022-10-23T10:43:06.458Z,57.82
2022-10-23T10:45:51.710Z,58.37
2022-10-23T10:48:18.610Z,58.77
2022-10-23T10:50:54.167Z,62.24
2022-10-23T10:53:53.133Z,63.93
2022-10-23T10:56:23.274Z,66.25
2022-10-23T10:58:58.393Z,64.77
2022-10-23T11:01:41.201Z,63.06
2022-10-23T11:04:28.009Z,56.95
2022-10-23T11:06:57.672Z,56.46
2022-10-23T11:09:45.963Z,55.51
2022-10-23T11:12:25.411Z,53.69
2022-10-23T11:14:52.777Z,56.87
2022-10-23T11:17:27.947Z,59.02
2022-10-23T11:20:00.564Z,61.44
2022-10-23T11:22:31.527Z,64.37
2022-10-23T11:25:23.101Z,64.13
2022-10-23T11:27:52.957Z,63.64
2022-10-23T11:30:23.796Z,62.08
2022-10-23T11:33:28.479Z,59.57
2022-10-23T11:36:06.787Z,58.07
2022-10-23T11:38:38.759Z,54.55
2022-10-23T11:41:27.858Z,54.21
2022-10-23T11:43:57.236Z,50.96
2022-10-23T11:46:25.644Z,50.29
2022-10-23T11:48:54.312Z,49.51
2022-10-23T11:51:38.551Z,46.85
2022-10-23T11:54:11.526Z,46.99
2022-10-23T11:56:39.711Z,48.44
2022-10-23T11:59:21.689Z,47.70
2022-10-23T12:01:52.194Z,48.38
2022-10-23T12:04:24.521Z,47.35
2022-10-23T12:07:00.232Z,47.58
2022-10-23T12:09:46.951Z,47.83
2022-10-23T12:12:15.667Z,47.19
2022-10-23T12:14:48.263Z,47.54
2022-10-23T12:17:37.161Z,50.33
2022-10-23T12:20:21.783Z,49.83
2022-10-23T12:23:00.973Z,49.51
2022-10-23T12:25:46.435Z,51.14
2022-10-23T12:28:31.962Z,51.54
2022-10-23T12:31:23.640Z,51.58
2022-10-23T12:33:53.437Z,50.55
2022-10-23T12:36:45.826Z,51.64
2022-10-23T12:39:27.598Z,52.62
2022-10-23T12:41:54.903Z,52.80
2022-10-23T12:44:24.525Z,50.21
2022-10-23T12:46:56.613Z,50.16
2022-10-23T12:49:26.420Z,48.46
2022-10-23T12:52:01.110Z,46.66
2022-10-23T12:54:28.900Z,45.28
2022-10-23T12:56:55.798Z,43.77
2022-10-23T12:59:38.221Z,43.15
2022-10-23T13:02:20.365Z,44.44
2022-10-23T13:04:49.593Z,44.74
2022-10-23T13:07:20.733Z,43.58
2022-10-23T13:09:48.241Z,41.63
2022-10-23T13:12:28.536Z,42.99
2022-10-23T13:14:57.555Z,44.61
2022-10-23T13:17:58.909Z,42.86
2022-10-23T13:20:27.068Z,40.91
2022-10-23T13:23:02.176Z,40.93
2022-10-23T13:25:34.077Z,39.79
2022-10-23T13:28:21.937Z,42.34
2022-10-23T13:31:08.181Z,43.21
2022-10-23T13:33:47.628Z,43.57
2022-10-23T13:36:17.669Z,44.36
2022-10-23T13:39:00.724Z,44.05
2022-10-23T13:41:35.219Z,43.96
2022-10-23T13:44:02.512Z,44.39
2022-10-23T13:46:30.179Z,44.95
2022-10-23T13:48:57.046Z,45.08
2022-10-23T13:51:27.959Z,44.50
2022-10-23T13:53:57.023Z,43.98
2022-10-23T13:56:28.216Z,45.55
2022-10-23T13:58:55.239Z,47.30
2022-10-23T14:01:25.598Z,49.63
2022-10-23T14:03:53.613Z,49.36
2022-10-23T14:06:20.820Z,49.37
2022-10-23T14:08:48.203Z,50.17
2022-10-23T14:11:17.149Z,50.83
2022-10-23T14:13:44.978Z,50.59
2022-10-23T14:16:17.434Z,52.25
2022-10-23T14:18:45.261Z,53.71
2022-10-23T14:21:14.620Z,54.58
2022-10-23T14:23:43.915Z,54.45
2022-10-23T14:26:15.849Z,54.84
2022-10-23T14:28:44.873Z,56.65
2022-10-23T14:31:14.664Z,58.03
2022-10-23T14:33:43.750Z,59.21
2022-10-23T14:36:11.558Z,60.02
2022-10-23T14:38:39.444Z,60.85
2022-10-23T14:41:15.765Z,61.20
2022-10-23T14:43:43.474Z,63.27
2022-10-23T14:46:19.587Z,63.16
2022-10-23T14:48:48.229Z,63.54
2022-10-23T14:51:30.588Z,64.50
2022-10-23T14:54:04.075Z,65.00
2022-10-23T14:56:33.754Z,63.95
2022-10-23T14:59:04.480Z,64.90
2022-10-23T15:01:40.110Z,64.59
2022-10-23T15:04:09.590Z,64.87
2022-10-23T15:06:37.974Z,65.58
2022-10-23T15:09:05.713Z,65.77
2022-10-23T15:11:33.480Z,67.29
2022-10-23T15:14:01.934Z,67.20
2022-10-23T15:16:28.906Z,67.67
2022-10-23T15:18:56.100Z,68.64
2022-10-23T15:21:23.361Z,68.93
2022-10-23T15:23:50.704Z,69.97
2022-10-23T15:26:23.220Z,69.82
2022-10-23T15:28:58.161Z,69.93
2022-10-23T15:31:31.444Z,70.21
2022-10-23T15:33:59.043Z,70.85
2022-10-23T15:36:27.958Z,71.54
2022-10-23T15:38:55.049Z,72.89
2022-10-23T15:41:28.881Z,73.91
2022-10-23T15:43:55.930Z,74.75
2022-10-23T15:46:23.422Z,76.30
2022-10-23T15:48:51.892Z,77.23
2022-10-23T15:51:19.417Z,77.91
2022-10-23T15:53:46.739Z,78.86
2022-10-23T15:56:13.994Z,79.50
2022-10-23T15:58:41.221Z,79.01
2022-10-23T16:01:08.432Z,79.34
2022-10-23T16:03:38.842Z,79.47
2022-10-23T16:06:12.081Z,79.55
2022-10-23T16:08:40.982Z,80.16
2022-10-23T16:11:29.822Z,81.17
2022-10-23T16:13:59.293Z,82.05
2022-10-23T16:16:28.191Z,81.81
2022-10-23T16:18:55.197Z,81.62
2022-10-23T16:21:24.883Z,82.30
2022-10-23T16:23:53.196Z,84.08
2022-10-23T16:26:20.942Z,84.64
2022-10-23T16:28:49.607Z,84.83
2022-10-23T16:31:20.781Z,84.84
2022-10-23T16:33:51.880Z,84.88
2022-10-23T16:36:20.259Z,84.65
2022-10-23T16:38:47.395Z,84.34
2022-10-23T16:41:14.323Z,83.96
2022-10-23T16:43:41.828Z,84.15
2022-10-23T16:46:18.612Z,84.16
2022-10-23T16:48:46.976Z,84.27
2022-10-23T16:51:18.709Z,84.63
2022-10-23T16:53:46.951Z,84.55
2022-10-23T16:56:19.181Z,84.73
2022-10-23T16:58:47.404Z,85.45
2022-10-23T17:01:25.275Z,86.10
2022-10-23T17:03:54.359Z,86.25
2022-10-23T17:06:24.156Z,86.23
2022-10-23T17:08:52.266Z,85.79
2022-10-23T17:11:24.966Z,85.01
2022-10-23T17:14:07.676Z,86.11
2022-10-23T17:16:47.833Z,87.57
2022-10-23T17:19:33.062Z,88.22
2022-10-23T17:22:11.243Z,89.16
2022-10-23T17:24:40.670Z,89.69
2022-10-23T17:27:08.231Z,90.05
2022-10-23T17:29:36.958Z,90.35
2022-10-23T17:32:05.792Z,91.03
2022-10-23T17:34:33.190Z,91.21
2022-10-23T17:37:00.790Z,91.08
2022-10-23T17:39:30.529Z,91.64
2022-10-23T17:41:57.845Z,92.07
2022-10-23T17:44:25.441Z,92.28
2022-10-23T17:46:54.499Z,91.76
2022-10-23T17:49:24.605Z,92.37
2022-10-23T17:51:56.573Z,92.79
2022-10-23T17:54:25.825Z,92.99
2022-10-23T17:56:52.977Z,92.74
2022-10-23T17:59:20.720Z,93.04
2022-10-23T18:01:49.129Z,92.62
2022-10-23T18:04:20.005Z,92.96
2022-10-23T18:06:54.106Z,93.41
2022-10-23T18:09:23.593Z,93.19
2022-10-23T18:11:51.594Z,93.81
2022-10-23T18:14:20.840Z,93.69
2022-10-23T18:16:50.138Z,93.48
2022-10-23T18:19:19.364Z,93.51
2022-10-23T18:21:47.767Z,93.48
2022-10-23T18:24:15.433Z,93.48
2022-10-23T18:26:43.272Z,93.28
2022-10-23T18:29:12.839Z,93.78
2022-10-23T18:31:40.900Z,94.29
2022-10-23T18:34:20.074Z,93.88
2022-10-23T18:36:50.098Z,93.67
2022-10-23T18:39:22.821Z,93.92
2022-10-23T18:41:57.881Z,93.79
2022-10-23T18:44:29.983Z,92.68
2022-10-23T18:46:59.239Z,93.91
2022-10-23T18:49:28.593Z,95.10
2022-10-23T18:51:58.579Z,95.63
2022-10-23T18:54:26.800Z,95.64
2022-10-23T18:56:54.210Z,96.32
2022-10-23T18:59:23.331Z,96.29
2022-10-23T19:01:51.182Z,96.43
2022-10-23T19:04:19.406Z,97.21
2022-10-23T19:06:48.397Z,96.93
2022-10-23T19:09:15.930Z,96.47
2022-10-23T19:11:45.899Z,97.06
2022-10-23T19:14:22.399Z,97.18
2022-10-23T19:17:01.352Z,97.31
2022-10-23T19:19:44.538Z,97.52
2022-10-23T19:22:17.614Z,97.75
2022-10-23T19:25:10.921Z,97.86
2022-10-23T19:27:45.091Z,98.05
2022-10-23T19:30:17.284Z,97.98
2022-10-23T19:32:50.459Z,97.63
2022-10-23T19:35:20.103Z,97.93
2022-10-23T19:37:52.754Z,97.95
2022-10-23T19:40:20.556Z,98.13
2022-10-23T19:42:49.085Z,98.27
2022-10-23T19:45:40.076Z,98.30
2022-10-23T19:48:08.943Z,98.11
2022-10-23T19:50:36.381Z,98.51
2022-10-23T19:53:05.414Z,98.84
2022-10-23T19:55:35.091Z,98.69
2022-10-23T19:58:02.874Z,98.55
2022-10-23T20:00:30.454Z,98.10
2022-10-23T20:02:57.989Z,98.65
2022-10-23T20:05:25.310Z,98.78
2022-10-23T20:08:16.156Z,98.74
2022-10-23T20:10:45.137Z,98.98
2022-10-23T20:13:19.714Z,98.85
2022-10-23T20:15:50.693Z,98.96
2022-10-23T20:18:18.352Z,99.18
2022-10-23T20:20:45.911Z,99.43
2022-10-23T20:23:14.349Z,99.50
2022-10-23T20:25:42.874Z,100.00
2022-10-23T20:28:14.432Z,100.00
2022-10-23T20:30:46.223Z,100.00
2022-10-23T20:33:21.569Z,100.00
2022-10-23T20:35:48.912Z,100.00
2022-10-23T20:38:19.264Z,100.00
2022-10-23T20:40:50.910Z,100.00
2022-10-23T20:43:19.565Z,100.00
2022-10-23T20:45:46.593Z,100.00
2022-10-23T20:48:13.685Z,100.00
2022-10-23T20:50:42.795Z,100.00
2022-10-23T20:53:12.864Z,100.00
2022-10-23T20:55:44.103Z,100.00
2022-10-23T20:58:11.232Z,100.00
2022-10-23T21:00:40.566Z,100.00
2022-10-23T21:03:08.630Z,100.00
2022-10-23T21:05:37.635Z,100.00
2022-10-23T21:08:06.866Z,100.00
2022-10-23T21:10:35.887Z,100.00
2022-10-23T21:13:03.917Z,100.00
2022-10-23T21:15:30.935Z,100.00
2022-10-23T21:18:04.962Z,100.00
2022-10-23T21:20:42.600Z,100.00
2022-10-23T21:23:14.630Z,100.00
2022-10-23T21:25:42.234Z,100.00
2022-10-23T21:28:11.651Z,100.00
2022-10-23T21:30:41.334Z,100.00
2022-10-23T21:33:09.457Z,100.00
2022-10-23T21:35:43.231Z,100.00
2022-10-23T21:38:19.339Z,100.00
2022-10-23T21:40:46.347Z,100.00
2022-10-23T21:43:14.266Z,100.00
2022-10-23T21:45:41.373Z,100.00
2022-10-23T21:48:09.365Z,100.00
2022-10-23T21:50:36.471Z,100.00
2022-10-23T21:53:04.561Z,100.00
2022-10-23T21:55:31.633Z,100.00
2022-10-23T21:57:59.555Z,100.00
2022-10-23T22:00:27.100Z,100.00
2022-10-23T22:02:55.117Z,100.00
2022-10-23T22:05:21.992Z,100.00
2022-10-23T22:07:49.141Z,100.00
2022-10-23T22:10:16.205Z,100.00
2022-10-23T22:12:43.244Z,100.00
2022-10-23T22:15:11.472Z,100.00
2022-10-23T22:17:39.474Z,100.00
2022-10-23T22:20:07.133Z,100.00
2022-10-23T22:22:34.122Z,100.00
2022-10-23T22:25:02.168Z,100.00
2022-10-23T22:27:37.123Z,100.00
2022-10-23T22:30:05.652Z,100.00
2022-10-23T22:32:35.233Z,100.00
2022-10-23T22:35:02.211Z,100.00
2022-10-23T22:37:29.228Z,100.00
2022-10-23T22:39:56.222Z,100.00
2022-10-23T22:42:24.111Z,100.00
2022-10-23T22:44:51.156Z,100.00
2022-10-23T22:47:18.147Z,100.00
2022-10-23T22:49:45.167Z,100.00
2022-10-23T22:52:14.070Z,100.00
2022-10-23T22:54:41.010Z,100.00
2022-10-23T22:57:07.966Z,100.00
2022-10-23T22:59:34.910Z,100.00
2022-10-23T23:02:01.938Z,100.00
2022-10-23T23:04:44.317Z,100.00
2022-10-23T23:07:13.672Z,100.00
2022-10-23T23:09:44.187Z,100.00
2022-10-23T23:12:13.995Z,100.00
2022-10-23T23:14:44.168Z,100.00
2022-10-23T23:17:12.259Z,100.00
2022-10-23T23:19:40.237Z,100.00
2022-10-23T23:22:08.709Z,100.00
2022-10-23T23:24:35.786Z,100.00
2022-10-23T23:27:02.752Z,100.00
2022-10-23T23:29:29.888Z,100.00
2022-10-23T23:31:58.054Z,100.00
2022-10-23T23:34:27.166Z,100.00
2022-10-23T23:36:55.183Z,100.00
2022-10-23T23:39:23.173Z,100.00
2022-10-23T23:41:51.073Z,100.00
2022-10-23T23:44:17.975Z,100.00
2022-10-23T23:46:46.020Z,100.00
2022-10-23T23:49:32.351Z,100.00
2022-10-23T23:52:00.240Z,100.00
2022-10-23T23:54:27.305Z,100.00
2022-10-23T23:57:00.114Z,100.00
2022-10-23T23:59:28.147Z,100.00
